Time;durP1;ratioP1;P1;durP2;ratioP2;P2;SDS_P1;SDS_P2;PMS_P1;PMS_P2;Temp;Humidity;BMP_temperature;BMP_pressure;BME280_temperature;BME280_humidity;BME280_pressure;Samples;Min_cycle;Max_cycle;Signal;HPM_P1;HPM_P2
2022/03/08 00:00:58;;;;;;;32.00;29.50;;;;;;;;;;4995867;28;20230;-83
2022/03/08 00:03:26;;;;;;;32.25;29.73;;;;;;;;;;4996323;28;20195;-84
2022/03/08 00:05:54;;;;;;;32.55;29.95;;;;;;;;;;4996201;28;20197;-84
2022/03/08 00:08:21;;;;;;;33.33;30.52;;;;;;;;;;4996272;28;20194;-83
2022/03/08 00:10:48;;;;;;;32.60;29.67;;;;;;;;;;4996136;28;20226;-83
2022/03/08 00:13:16;;;;;;;31.95;29.55;;;;;;;;;;4996177;28;20194;-84
2022/03/08 00:15:43;;;;;;;31.90;29.50;;;;;;;;;;4996305;28;20250;-84
2022/03/08 00:18:13;;;;;;;32.72;30.08;;;;;;;;;;4978406;28;20231;-83
2022/03/08 00:20:40;;;;;;;31.17;28.92;;;;;;;;;;4995719;28;20269;-84
2022/03/08 00:23:07;;;;;;;31.98;29.58;;;;;;;;;;4995491;28;20705;-82
2022/03/08 00:25:35;;;;;;;32.75;29.85;;;;;;;;;;4995586;28;20191;-83
2022/03/08 00:28:02;;;;;;;30.20;27.95;;;;;;;;;;4995901;28;20542;-83
2022/03/08 00:30:30;;;;;;;31.80;29.50;;;;;;;;;;4995537;28;20637;-84
2022/03/08 00:32:57;;;;;;;31.75;29.27;;;;;;;;;;4995552;28;20226;-83
2022/03/08 00:35:27;;;;;;;30.40;28.05;;;;;;;;;;4995203;28;20191;-83
2022/03/08 00:37:55;;;;;;;32.28;29.77;;;;;;;;;;4995346;28;20195;-83
2022/03/08 00:40:23;;;;;;;32.08;29.50;;;;;;;;;;4995784;28;20229;-84
2022/03/08 00:42:51;;;;;;;31.08;28.77;;;;;;;;;;4978222;28;20723;-83
2022/03/08 00:45:18;;;;;;;31.20;28.65;;;;;;;;;;4995406;28;20245;-83
2022/03/08 00:47:46;;;;;;;31.92;29.52;;;;;;;;;;4995109;28;20203;-82
2022/03/08 00:50:14;;;;;;;31.50;29.10;;;;;;;;;;4994872;28;20195;-84
2022/03/08 00:52:43;;;;;;;31.52;29.13;;;;;;;;;;4995050;28;20206;-83
2022/03/08 00:55:11;;;;;;;32.17;29.77;;;;;;;;;;4995507;28;20261;-83
2022/03/08 00:57:38;;;;;;;32.75;30.00;;;;;;;;;;4994694;28;20343;-83
2022/03/08 01:00:07;;;;;;;34.83;32.00;;;;;;;;;;4995264;28;20301;-83
2022/03/08 01:02:34;;;;;;;34.45;31.38;;;;;;;;;;4995146;28;20191;-83
2022/03/08 01:05:02;;;;;;;35.15;32.10;;;;;;;;;;4995419;28;20187;-83
2022/03/08 01:07:29;;;;;;;35.40;32.42;;;;;;;;;;4995383;28;20195;-83
2022/03/08 01:09:58;;;;;;;33.25;30.35;;;;;;;;;;4994843;28;20198;-83
2022/03/08 01:12:25;;;;;;;33.60;30.60;;;;;;;;;;4994917;28;20681;-84
2022/03/08 01:14:53;;;;;;;36.08;32.97;;;;;;;;;;4977640;28;20273;-83
2022/03/08 01:17:20;;;;;;;31.92;29.33;;;;;;;;;;4994599;28;20289;-83
2022/03/08 01:19:47;;;;;;;32.70;29.73;;;;;;;;;;4994935;28;20314;-84
2022/03/08 01:22:15;;;;;;;32.13;29.30;;;;;;;;;;4994908;28;20194;-84
2022/03/08 01:24:42;;;;;;;33.05;30.27;;;;;;;;;;4994822;28;20187;-84
2022/03/08 01:27:11;;;;;;;31.48;29.05;;;;;;;;;;4994742;28;20203;-84
2022/03/08 01:29:39;;;;;;;32.88;30.38;;;;;;;;;;4994904;28;20593;-83
2022/03/08 01:32:07;;;;;;;31.00;28.50;;;;;;;;;;4994282;28;20601;-83
2022/03/08 01:34:35;;;;;;;32.45;29.77;;;;;;;;;;4977602;28;20215;-84
2022/03/08 01:37:02;;;;;;;31.55;29.30;;;;;;;;;;4994755;28;20285;-83
2022/03/08 01:39:30;;;;;;;31.08;28.80;;;;;;;;;;4994175;28;20207;-83
2022/03/08 01:41:57;;;;;;;31.27;28.75;;;;;;;;;;4994295;28;20765;-84
2022/03/08 01:44:26;;;;;;;31.45;29.25;;;;;;;;;;4994343;28;20602;-83
2022/03/08 01:46:53;;;;;;;31.50;29.05;;;;;;;;;;4994690;28;20203;-83
2022/03/08 01:49:21;;;;;;;33.95;31.45;;;;;;;;;;4994595;28;20202;-83
2022/03/08 01:51:48;;;;;;;30.88;28.63;;;;;;;;;;4994464;28;20206;-83
2022/03/08 01:54:15;;;;;;;30.70;28.40;;;;;;;;;;4994318;28;20186;-83
2022/03/08 01:56:43;;;;;;;30.80;28.52;;;;;;;;;;4993795;28;20688;-83
2022/03/08 01:59:10;;;;;;;31.50;29.30;;;;;;;;;;4994257;28;20588;-83
2022/03/08 02:01:39;;;;;;;32.60;29.35;;;;;;;;;;4976034;28;20218;-84
2022/03/08 02:04:06;;;;;;;32.35;29.90;;;;;;;;;;4994468;28;20199;-83
2022/03/08 02:06:34;;;;;;;31.00;28.67;;;;;;;;;;4994027;28;20641;-84
2022/03/08 02:09:02;;;;;;;32.03;29.63;;;;;;;;;;4994061;28;20194;-84
2022/03/08 02:11:31;;;;;;;30.35;28.15;;;;;;;;;;4976818;28;20225;-83
2022/03/08 02:13:58;;;;;;;31.25;28.98;;;;;;;;;;4994215;28;20191;-83
2022/03/08 02:16:26;;;;;;;30.95;28.75;;;;;;;;;;4993838;28;20230;-84
2022/03/08 02:18:54;;;;;;;30.60;28.40;;;;;;;;;;4993672;28;20293;-83
2022/03/08 02:21:23;;;;;;;31.15;28.85;;;;;;;;;;4993995;28;20576;-83
2022/03/08 02:23:51;;;;;;;31.67;29.00;;;;;;;;;;4993614;28;20198;-83
2022/03/08 02:26:18;;;;;;;30.05;27.95;;;;;;;;;;4993874;28;20649;-83
2022/03/08 02:28:46;;;;;;;31.17;28.42;;;;;;;;;;4993418;28;20214;-84
2022/03/08 02:31:17;;;;;;;29.17;27.27;;;;;;;;;;4994037;28;20200;-83
2022/03/08 02:33:45;;;;;;;31.60;29.23;;;;;;;;;;4977906;28;20538;-84
2022/03/08 02:36:12;;;;;;;30.42;28.45;;;;;;;;;;4993921;28;20215;-84
2022/03/08 02:38:41;;;;;;;30.10;27.75;;;;;;;;;;4993696;28;20187;-84
2022/03/08 02:41:09;;;;;;;29.40;27.20;;;;;;;;;;4993568;28;20711;-84
2022/03/08 02:43:36;;;;;;;29.42;27.40;;;;;;;;;;4993696;28;20202;-83
2022/03/08 02:46:04;;;;;;;29.58;27.45;;;;;;;;;;4993751;28;20195;-83
2022/03/08 02:48:31;;;;;;;29.00;26.95;;;;;;;;;;4993783;28;20191;-83
2022/03/08 02:50:59;;;;;;;29.48;27.48;;;;;;;;;;4993773;28;20222;-82
2022/03/08 02:53:27;;;;;;;29.98;27.50;;;;;;;;;;4976388;28;20257;-83
2022/03/08 02:55:55;;;;;;;29.67;27.48;;;;;;;;;;4993456;28;20202;-83
2022/03/08 02:58:23;;;;;;;28.55;26.33;;;;;;;;;;4993300;28;20713;-84
2022/03/08 03:00:50;;;;;;;28.52;26.58;;;;;;;;;;4993639;28;20218;-84
2022/03/08 03:03:17;;;;;;;27.95;26.00;;;;;;;;;;4993430;28;20191;-84
2022/03/08 03:05:45;;;;;;;27.95;25.95;;;;;;;;;;4993741;28;20250;-83
2022/03/08 03:08:12;;;;;;;27.60;25.80;;;;;;;;;;4993537;28;20187;-84
2022/03/08 03:10:40;;;;;;;27.30;25.55;;;;;;;;;;4993680;28;20199;-82
2022/03/08 03:13:09;;;;;;;27.52;25.77;;;;;;;;;;4995495;28;20290;-83
2022/03/08 03:15:36;;;;;;;26.40;24.60;;;;;;;;;;4997376;28;20191;-84
2022/03/08 03:18:09;;;;;;;26.85;25.05;;;;;;;;;;4997023;28;20230;-83
2022/03/08 03:20:36;;;;;;;26.75;24.85;;;;;;;;;;4997203;28;20215;-84
2022/03/08 03:23:04;;;;;;;28.13;25.83;;;;;;;;;;4996805;28;20210;-82
2022/03/08 03:25:31;;;;;;;26.73;24.83;;;;;;;;;;4997029;28;20203;-83
2022/03/08 03:27:58;;;;;;;27.65;25.92;;;;;;;;;;4996915;28;20187;-82
2022/03/08 03:30:27;;;;;;;27.73;25.90;;;;;;;;;;4996997;28;20265;-83
2022/03/08 03:32:55;;;;;;;25.75;23.95;;;;;;;;;;4980060;28;20203;-83
2022/03/08 03:35:22;;;;;;;26.50;24.70;;;;;;;;;;4996948;28;20195;-84
2022/03/08 03:37:49;;;;;;;27.55;25.50;;;;;;;;;;4996731;28;20187;-83
2022/03/08 03:40:17;;;;;;;28.30;26.13;;;;;;;;;;4996585;28;20202;-83
2022/03/08 03:42:45;;;;;;;27.85;25.85;;;;;;;;;;4963288;28;20661;-84
2022/03/08 03:45:12;;;;;;;26.45;24.85;;;;;;;;;;4996651;28;20187;-83
2022/03/08 03:47:41;;;;;;;26.63;24.85;;;;;;;;;;4996714;28;20191;-83
2022/03/08 03:50:10;;;;;;;26.48;24.83;;;;;;;;;;4996683;28;20191;-84
2022/03/08 03:52:38;;;;;;;26.70;24.90;;;;;;;;;;4996701;28;20742;-84
2022/03/08 03:55:06;;;;;;;26.48;24.88;;;;;;;;;;4996681;28;20286;-84
2022/03/08 03:57:33;;;;;;;26.50;24.70;;;;;;;;;;4978757;28;20689;-83
2022/03/08 04:00:00;;;;;;;27.33;25.33;;;;;;;;;;4996200;28;20195;-84
2022/03/08 04:02:28;;;;;;;27.25;25.35;;;;;;;;;;4996468;28;20222;-82
2022/03/08 04:04:56;;;;;;;27.30;25.58;;;;;;;;;;4996444;28;20191;-84
2022/03/08 04:07:24;;;;;;;27.25;25.45;;;;;;;;;;4996384;28;20191;-83
2022/03/08 04:09:51;;;;;;;26.50;24.90;;;;;;;;;;4978752;28;20253;-83
2022/03/08 04:12:18;;;;;;;26.33;24.83;;;;;;;;;;4996556;28;20194;-83
2022/03/08 04:14:46;;;;;;;27.50;25.80;;;;;;;;;;4996016;28;20202;-83
2022/03/08 04:17:13;;;;;;;25.80;24.20;;;;;;;;;;4996130;28;20227;-84
2022/03/08 04:19:42;;;;;;;27.67;25.77;;;;;;;;;;4996129;28;20611;-84
2022/03/08 04:22:11;;;;;;;25.80;24.20;;;;;;;;;;4995880;28;20582;-83
2022/03/08 04:24:38;;;;;;;24.92;23.42;;;;;;;;;;4994966;28;20261;-83
2022/03/08 04:27:06;;;;;;;26.95;25.35;;;;;;;;;;4995788;28;20195;-84
2022/03/08 04:29:33;;;;;;;26.00;24.23;;;;;;;;;;4979075;28;20195;-84
2022/03/08 04:32:01;;;;;;;25.88;24.27;;;;;;;;;;4996011;28;20198;-84
2022/03/08 04:34:28;;;;;;;26.58;24.98;;;;;;;;;;4995971;28;20198;-84
2022/03/08 04:36:56;;;;;;;26.75;24.95;;;;;;;;;;4995465;28;20653;-84
2022/03/08 04:39:24;;;;;;;26.55;24.85;;;;;;;;;;4995875;28;20198;-82
2022/03/08 04:41:52;;;;;;;26.13;24.50;;;;;;;;;;4995679;28;20269;-84
2022/03/08 04:44:19;;;;;;;26.33;24.63;;;;;;;;;;4995677;28;20199;-84
2022/03/08 04:46:47;;;;;;;25.83;24.23;;;;;;;;;;4995549;28;20265;-84
2022/03/08 04:49:14;;;;;;;27.45;25.65;;;;;;;;;;4995690;28;20629;-84
2022/03/08 04:51:41;;;;;;;26.35;24.73;;;;;;;;;;4995299;28;20704;-84
2022/03/08 04:54:08;;;;;;;27.27;25.23;;;;;;;;;;4995655;28;20248;-84
2022/03/08 04:56:37;;;;;;;27.80;25.80;;;;;;;;;;4995040;28;20231;-84
2022/03/08 04:59:05;;;;;;;27.25;25.55;;;;;;;;;;4995384;28;20195;-84
2022/03/08 05:01:32;;;;;;;27.95;26.05;;;;;;;;;;4995165;28;20284;-84
2022/03/08 05:03:59;;;;;;;27.70;25.88;;;;;;;;;;4995390;28;20199;-85
2022/03/08 05:06:30;;;;;;;26.38;24.77;;;;;;;;;;4995120;28;20214;-84
2022/03/08 05:08:57;;;;;;;26.65;24.95;;;;;;;;;;4994863;28;20283;-84
2022/03/08 05:11:25;;;;;;;25.70;24.00;;;;;;;;;;4995109;28;20250;-84
2022/03/08 05:13:54;;;;;;;26.60;24.90;;;;;;;;;;4995059;28;20191;-84
2022/03/08 05:16:21;;;;;;;29.77;27.65;;;;;;;;;;4994808;28;20195;-83
2022/03/08 05:18:48;;;;;;;28.77;26.58;;;;;;;;;;4994865;28;20234;-84
2022/03/08 05:21:15;;;;;;;27.50;25.60;;;;;;;;;;4994899;28;20672;-85
2022/03/08 05:23:43;;;;;;;27.00;24.80;;;;;;;;;;4994857;28;20210;-82
2022/03/08 05:26:10;;;;;;;25.50;23.90;;;;;;;;;;4994673;28;20214;-84
2022/03/08 05:28:38;;;;;;;26.85;25.05;;;;;;;;;;4994620;28;20187;-84
2022/03/08 05:31:07;;;;;;;27.10;25.20;;;;;;;;;;4977268;28;20206;-84
2022/03/08 05:33:34;;;;;;;28.77;26.58;;;;;;;;;;4994304;28;20226;-85
2022/03/08 05:36:02;;;;;;;27.88;25.85;;;;;;;;;;4977610;28;20198;-84
2022/03/08 05:38:29;;;;;;;28.20;26.10;;;;;;;;;;4994537;28;20596;-84
2022/03/08 05:40:56;;;;;;;29.25;26.90;;;;;;;;;;4994548;28;20518;-84
2022/03/08 05:43:24;;;;;;;28.60;26.67;;;;;;;;;;4994606;28;20253;-84
2022/03/08 05:45:51;;;;;;;28.50;26.08;;;;;;;;;;4994476;28;20578;-84
2022/03/08 05:48:20;;;;;;;28.08;25.92;;;;;;;;;;4993967;28;20198;-80
2022/03/08 05:50:47;;;;;;;28.40;26.40;;;;;;;;;;4993698;28;20246;-80
2022/03/08 05:53:15;;;;;;;28.10;26.17;;;;;;;;;;4993784;28;20222;-80
2022/03/08 05:55:42;;;;;;;28.25;26.27;;;;;;;;;;4993764;28;20249;-79
2022/03/08 05:58:09;;;;;;;31.75;29.15;;;;;;;;;;4993704;28;20313;-81
2022/03/08 06:00:37;;;;;;;29.65;27.40;;;;;;;;;;4993742;28;20233;-81
2022/03/08 06:03:04;;;;;;;32.30;29.77;;;;;;;;;;4994326;28;20273;-81
2022/03/08 06:05:35;;;;;;;32.10;29.70;;;;;;;;;;4993752;28;20187;-81
2022/03/08 06:08:03;;;;;;;34.67;31.60;;;;;;;;;;4976008;28;20199;-80
2022/03/08 06:10:30;;;;;;;32.95;29.73;;;;;;;;;;4993283;28;20202;-81
2022/03/08 06:12:57;;;;;;;32.92;30.02;;;;;;;;;;4993273;28;20773;-81
2022/03/08 06:15:25;;;;;;;33.10;30.10;;;;;;;;;;4993610;28;20191;-81
2022/03/08 06:17:53;;;;;;;30.00;27.60;;;;;;;;;;4993325;28;20235;-81
2022/03/08 06:20:20;;;;;;;32.65;29.70;;;;;;;;;;4993200;28;20195;-81
2022/03/08 06:22:49;;;;;;;31.42;28.35;;;;;;;;;;4993373;28;20227;-81
2022/03/08 06:25:18;;;;;;;32.00;29.15;;;;;;;;;;4993168;28;20192;-81
2022/03/08 06:27:45;;;;;;;25.58;23.67;;;;;;;;;;4975641;28;20199;-82
2022/03/08 06:30:13;;;;;;;28.27;26.17;;;;;;;;;;4993439;28;20191;-82
2022/03/08 06:32:40;;;;;;;28.77;26.77;;;;;;;;;;4993519;28;20195;-82
2022/03/08 06:35:08;;;;;;;30.23;27.83;;;;;;;;;;4993016;28;20716;-82
2022/03/08 06:37:35;;;;;;;30.90;28.63;;;;;;;;;;4993333;28;20191;-81
2022/03/08 06:40:05;;;;;;;33.17;30.42;;;;;;;;;;4993103;28;20199;-82
2022/03/08 06:42:32;;;;;;;30.25;27.95;;;;;;;;;;4993337;28;20223;-81
2022/03/08 06:44:59;;;;;;;30.83;28.60;;;;;;;;;;4993354;28;20241;-81
2022/03/08 06:47:27;;;;;;;30.35;28.08;;;;;;;;;;4994653;28;20195;-82
2022/03/08 06:49:54;;;;;;;32.08;29.27;;;;;;;;;;4997172;28;20208;-81
2022/03/08 06:52:22;;;;;;;30.95;28.40;;;;;;;;;;4996800;28;20657;-81
2022/03/08 06:54:49;;;;;;;29.08;26.88;;;;;;;;;;4996813;28;20279;-81
2022/03/08 06:57:18;;;;;;;28.88;26.58;;;;;;;;;;4979425;28;20219;-81
2022/03/08 06:59:45;;;;;;;29.67;27.35;;;;;;;;;;4997012;28;20195;-82
2022/03/08 07:02:13;;;;;;;29.05;26.98;;;;;;;;;;4996535;28;20850;-81
2022/03/08 07:04:40;;;;;;;29.95;27.67;;;;;;;;;;4979765;28;20195;-81
2022/03/08 07:07:07;;;;;;;31.25;28.83;;;;;;;;;;4996567;28;20206;-81
2022/03/08 07:09:35;;;;;;;35.33;32.10;;;;;;;;;;4979678;28;20245;-81
2022/03/08 07:12:03;;;;;;;29.60;26.65;;;;;;;;;;4996369;28;20197;-82
2022/03/08 07:14:32;;;;;;;27.55;25.58;;;;;;;;;;4996683;28;20198;-81
2022/03/08 07:16:59;;;;;;;29.88;27.38;;;;;;;;;;4996511;28;20190;-81
2022/03/08 07:19:27;;;;;;;29.02;26.88;;;;;;;;;;4996394;28;20266;-81
2022/03/08 07:21:54;;;;;;;29.00;26.67;;;;;;;;;;4996324;28;20214;-81
2022/03/08 07:24:21;;;;;;;31.05;28.48;;;;;;;;;;4996611;28;20238;-82
2022/03/08 07:26:49;;;;;;;28.83;26.92;;;;;;;;;;4996094;28;20668;-80
2022/03/08 07:29:16;;;;;;;28.27;26.20;;;;;;;;;;4996440;28;20195;-81
2022/03/08 07:31:45;;;;;;;27.30;25.35;;;;;;;;;;4996318;28;20202;-81
2022/03/08 07:34:14;;;;;;;28.73;26.58;;;;;;;;;;4996495;28;20544;-82
2022/03/08 07:36:41;;;;;;;27.02;25.13;;;;;;;;;;4996327;28;20222;-81
2022/03/08 07:39:09;;;;;;;27.83;25.85;;;;;;;;;;4996050;28;20203;-81
2022/03/08 07:41:36;;;;;;;26.80;24.98;;;;;;;;;;4996279;28;20214;-81
2022/03/08 07:44:03;;;;;;;26.38;24.58;;;;;;;;;;4995919;28;20253;-80
2022/03/08 07:46:31;;;;;;;27.60;25.58;;;;;;;;;;4996059;28;20530;-81
2022/03/08 07:48:59;;;;;;;25.73;24.15;;;;;;;;;;4996125;28;20203;-80
2022/03/08 07:51:27;;;;;;;26.83;25.15;;;;;;;;;;4996300;28;20191;-81
2022/03/08 07:53:54;;;;;;;25.70;24.17;;;;;;;;;;4995990;28;20187;-82
2022/03/08 07:56:21;;;;;;;26.02;24.33;;;;;;;;;;4995670;28;20229;-81
2022/03/08 07:58:49;;;;;;;26.45;24.75;;;;;;;;;;4995636;28;20190;-81
2022/03/08 08:01:16;;;;;;;27.45;25.52;;;;;;;;;;4995640;28;20191;-81
2022/03/08 08:03:44;;;;;;;27.38;25.55;;;;;;;;;;4995781;28;20629;-81
2022/03/08 08:06:12;;;;;;;26.80;25.05;;;;;;;;;;4995744;28;20249;-81
2022/03/08 08:08:40;;;;;;;27.08;25.38;;;;;;;;;;4995774;28;20525;-81
2022/03/08 08:11:07;;;;;;;24.55;22.85;;;;;;;;;;4995406;28;20195;-81
2022/03/08 08:13:34;;;;;;;25.10;23.60;;;;;;;;;;4995737;28;20195;-80
2022/03/08 08:16:02;;;;;;;24.65;23.20;;;;;;;;;;4995275;28;20637;-81
2022/03/08 08:18:29;;;;;;;25.48;23.77;;;;;;;;;;4995015;28;20266;-80
2022/03/08 08:20:56;;;;;;;25.30;23.80;;;;;;;;;;4995201;28;20645;-81
2022/03/08 08:23:25;;;;;;;25.20;23.70;;;;;;;;;;4995253;28;20751;-81
2022/03/08 08:25:53;;;;;;;25.33;23.42;;;;;;;;;;4995222;28;20195;-81
2022/03/08 08:28:20;;;;;;;24.27;22.88;;;;;;;;;;4994983;28;20238;-81
2022/03/08 08:30:48;;;;;;;24.85;23.25;;;;;;;;;;4995183;28;20195;-81
2022/03/08 08:33:15;;;;;;;25.17;23.48;;;;;;;;;;4995280;28;20195;-81
2022/03/08 08:35:42;;;;;;;26.58;24.80;;;;;;;;;;4994801;28;20645;-81
2022/03/08 08:38:10;;;;;;;23.20;21.75;;;;;;;;;;4995163;28;20198;-81
2022/03/08 08:40:38;;;;;;;25.17;23.70;;;;;;;;;;4995452;28;20253;-81
2022/03/08 08:43:06;;;;;;;25.02;23.42;;;;;;;;;;4994852;28;20585;-81
2022/03/08 08:45:34;;;;;;;25.02;23.52;;;;;;;;;;4994973;28;20290;-82
2022/03/08 08:48:01;;;;;;;24.40;22.90;;;;;;;;;;4994808;28;20561;-81
2022/03/08 08:50:29;;;;;;;25.30;23.50;;;;;;;;;;4994622;28;20200;-80
2022/03/08 08:52:56;;;;;;;25.02;23.48;;;;;;;;;;4994614;28;20638;-81
2022/03/08 08:55:24;;;;;;;25.35;23.65;;;;;;;;;;4994671;28;20615;-80
2022/03/08 08:57:53;;;;;;;24.02;22.63;;;;;;;;;;4994092;28;20558;-81
2022/03/08 09:00:20;;;;;;;24.63;23.02;;;;;;;;;;4994408;28;20657;-81
2022/03/08 09:02:48;;;;;;;25.15;23.55;;;;;;;;;;4994635;28;20214;-82
2022/03/08 09:05:15;;;;;;;23.83;22.23;;;;;;;;;;4994863;28;20278;-81
2022/03/08 09:07:43;;;;;;;24.60;23.00;;;;;;;;;;4994360;28;20195;-81
2022/03/08 09:10:11;;;;;;;24.38;22.88;;;;;;;;;;4993730;28;20645;-80
2022/03/08 09:12:39;;;;;;;24.65;23.25;;;;;;;;;;4994563;28;20204;-81
2022/03/08 09:15:08;;;;;;;23.67;22.17;;;;;;;;;;4994535;28;20198;-80
2022/03/08 09:17:37;;;;;;;23.52;22.23;;;;;;;;;;4993997;28;20235;-81
2022/03/08 09:20:04;;;;;;;24.50;22.85;;;;;;;;;;4994392;28;20186;-81
2022/03/08 09:22:32;;;;;;;24.17;22.65;;;;;;;;;;4994266;28;20554;-81
2022/03/08 09:24:59;;;;;;;24.42;22.92;;;;;;;;;;4994254;28;20198;-81
2022/03/08 09:27:26;;;;;;;24.63;23.08;;;;;;;;;;4993798;28;20198;-81
2022/03/08 09:29:54;;;;;;;23.52;22.05;;;;;;;;;;4994162;28;20242;-81
2022/03/08 09:32:22;;;;;;;24.50;23.00;;;;;;;;;;4994111;28;20199;-81
2022/03/08 09:34:50;;;;;;;24.30;22.80;;;;;;;;;;4994293;28;20191;-81
2022/03/08 09:37:17;;;;;;;23.58;22.17;;;;;;;;;;4993960;28;20187;-81
2022/03/08 09:39:44;;;;;;;23.27;21.88;;;;;;;;;;4994269;28;20656;-80
2022/03/08 09:42:12;;;;;;;23.10;21.70;;;;;;;;;;4993819;28;20237;-81
2022/03/08 09:44:39;;;;;;;24.60;22.80;;;;;;;;;;4994061;28;20191;-81
2022/03/08 09:47:07;;;;;;;23.58;22.08;;;;;;;;;;4993734;28;20425;-81
2022/03/08 09:49:35;;;;;;;23.30;21.90;;;;;;;;;;4993923;28;20187;-80
2022/03/08 09:52:03;;;;;;;24.67;23.17;;;;;;;;;;4993588;28;20970;-81
2022/03/08 09:54:31;;;;;;;22.70;21.10;;;;;;;;;;4993777;28;20294;-81
2022/03/08 09:56:58;;;;;;;23.08;21.77;;;;;;;;;;4993542;28;20269;-80
2022/03/08 09:59:29;;;;;;;23.35;21.90;;;;;;;;;;4993849;28;20190;-82
2022/03/08 10:01:57;;;;;;;22.92;21.63;;;;;;;;;;4993502;28;20195;-81
2022/03/08 10:04:24;;;;;;;23.10;21.70;;;;;;;;;;4976317;28;20656;-80
2022/03/08 10:06:53;;;;;;;22.90;21.63;;;;;;;;;;4993394;28;20245;-80
2022/03/08 10:09:21;;;;;;;24.25;22.63;;;;;;;;;;4994019;28;20596;-80
2022/03/08 10:11:51;;;;;;;24.40;22.90;;;;;;;;;;4993513;28;20669;-80
2022/03/08 10:14:28;;;;;;;23.25;21.85;;;;;;;;;;4994057;28;20198;-81
2022/03/08 10:16:56;;;;;;;23.20;21.90;;;;;;;;;;4993817;28;20278;-82
2022/03/08 10:19:23;;;;;;;23.30;21.90;;;;;;;;;;4993296;28;20246;-81
2022/03/08 10:21:54;;;;;;;23.57;22.13;;;;;;;;;;4994045;28;20198;-81
2022/03/08 10:24:24;;;;;;;22.60;21.00;;;;;;;;;;4997980;28;20490;-81
2022/03/08 10:26:52;;;;;;;23.40;22.00;;;;;;;;;;4997347;28;20245;-80
2022/03/08 10:29:25;;;;;;;22.98;21.58;;;;;;;;;;4998380;28;20207;-80
2022/03/08 10:32:04;;;;;;;23.15;21.83;;;;;;;;;;4997620;28;20297;-81
2022/03/08 10:34:32;;;;;;;22.75;21.45;;;;;;;;;;4997328;28;20530;-80
2022/03/08 10:37:00;;;;;;;23.02;21.60;;;;;;;;;;4997484;28;20198;-81
2022/03/08 10:39:29;;;;;;;22.57;21.37;;;;;;;;;;4997244;28;20716;-81
2022/03/08 10:41:58;;;;;;;23.02;21.65;;;;;;;;;;4997560;28;20421;-81
2022/03/08 10:44:32;;;;;;;23.50;22.05;;;;;;;;;;4997402;28;20222;-81
2022/03/08 10:47:01;;;;;;;22.13;20.88;;;;;;;;;;4997492;28;20194;-80
2022/03/08 10:49:28;;;;;;;22.88;21.55;;;;;;;;;;4997326;28;20191;-79
2022/03/08 10:52:00;;;;;;;23.52;22.00;;;;;;;;;;4997526;28;20633;-80
2022/03/08 10:54:30;;;;;;;23.27;21.95;;;;;;;;;;4998467;28;20198;-80
2022/03/08 10:56:58;;;;;;;22.52;21.23;;;;;;;;;;4998842;28;20311;-81
2022/03/08 10:59:25;;;;;;;22.85;21.50;;;;;;;;;;4997592;28;20612;-81
2022/03/08 11:01:53;;;;;;;24.05;22.20;;;;;;;;;;4997298;28;20660;-81
2022/03/08 11:04:21;;;;;;;22.88;21.58;;;;;;;;;;4996897;28;20684;-80
2022/03/08 11:06:52;;;;;;;23.63;22.13;;;;;;;;;;4997208;28;20641;-80
2022/03/08 11:09:20;;;;;;;22.58;21.25;;;;;;;;;;4997540;28;20195;-81
2022/03/08 11:11:49;;;;;;;23.33;21.95;;;;;;;;;;4997011;28;20199;-82
2022/03/08 11:14:16;;;;;;;22.70;21.40;;;;;;;;;;4996979;28;20187;-82
2022/03/08 11:16:50;;;;;;;22.67;21.38;;;;;;;;;;4996970;28;20203;-81
2022/03/08 11:19:18;;;;;;;23.58;22.05;;;;;;;;;;4996819;28;20236;-82
2022/03/08 11:21:45;;;;;;;23.73;22.33;;;;;;;;;;4997020;28;20203;-82
2022/03/08 11:24:14;;;;;;;22.88;21.38;;;;;;;;;;4996409;28;20237;-82
2022/03/08 11:26:41;;;;;;;23.77;22.35;;;;;;;;;;4996768;28;20211;-81
2022/03/08 11:29:10;;;;;;;23.10;21.80;;;;;;;;;;4996553;28;20576;-82
2022/03/08 11:31:39;;;;;;;23.40;22.10;;;;;;;;;;4996802;28;20442;-80
2022/03/08 11:34:10;;;;;;;23.90;22.50;;;;;;;;;;4996364;28;20195;-81
2022/03/08 11:36:42;;;;;;;22.33;20.92;;;;;;;;;;4996516;28;20517;-81
2022/03/08 11:39:14;;;;;;;23.80;22.30;;;;;;;;;;4996410;28;20191;-81
2022/03/08 11:41:42;;;;;;;24.13;22.53;;;;;;;;;;4996480;28;20198;-81
2022/03/08 11:44:21;;;;;;;23.30;21.90;;;;;;;;;;4996024;28;20489;-81
2022/03/08 11:46:59;;;;;;;22.90;21.52;;;;;;;;;;4996249;28;20195;-81
2022/03/08 11:49:39;;;;;;;23.67;22.17;;;;;;;;;;4996080;28;20195;-82
2022/03/08 11:52:15;;;;;;;23.10;21.80;;;;;;;;;;4995849;28;20421;-81
2022/03/08 11:54:42;;;;;;;23.43;22.03;;;;;;;;;;4996044;28;20609;-81
2022/03/08 11:57:10;;;;;;;25.07;23.47;;;;;;;;;;4978671;28;20444;-80
2022/03/08 11:59:39;;;;;;;24.53;23.00;;;;;;;;;;4996009;28;20509;-81
2022/03/08 12:02:06;;;;;;;23.43;22.03;;;;;;;;;;4995648;28;20439;-81
2022/03/08 12:04:45;;;;;;;23.87;22.33;;;;;;;;;;4978032;28;20518;-82
2022/03/08 12:07:26;;;;;;;23.50;22.20;;;;;;;;;;4995788;28;20408;-81
2022/03/08 12:10:08;;;;;;;23.73;22.37;;;;;;;;;;4995749;28;20195;-82
2022/03/08 12:12:42;;;;;;;24.10;22.60;;;;;;;;;;4994790;28;20598;-82
2022/03/08 12:15:11;;;;;;;24.73;23.00;;;;;;;;;;4995316;28;20424;-81
2022/03/08 12:17:39;;;;;;;24.17;22.67;;;;;;;;;;4995525;28;20210;-81
2022/03/08 12:20:14;;;;;;;25.42;23.73;;;;;;;;;;4995309;28;20438;-82
2022/03/08 12:22:41;;;;;;;24.73;23.23;;;;;;;;;;4995512;28;20229;-81
2022/03/08 12:25:15;;;;;;;25.30;23.02;;;;;;;;;;4995093;28;20464;-80
2022/03/08 12:27:50;;;;;;;24.77;22.77;;;;;;;;;;4995449;28;20195;-82
2022/03/08 12:30:19;;;;;;;23.80;22.50;;;;;;;;;;4995459;28;20556;-81
2022/03/08 12:32:47;;;;;;;23.50;22.20;;;;;;;;;;4994994;28;20442;-81
2022/03/08 12:35:22;;;;;;;23.50;22.10;;;;;;;;;;4994841;28;20921;-81
2022/03/08 12:37:50;;;;;;;24.40;22.87;;;;;;;;;;4977615;28;20449;-83
2022/03/08 12:40:28;;;;;;;26.80;24.90;;;;;;;;;;4977332;28;20514;-81
2022/03/08 12:42:57;;;;;;;24.95;23.40;;;;;;;;;;4994994;28;20423;-82
2022/03/08 12:45:30;;;;;;;25.67;24.17;;;;;;;;;;4993754;28;20218;-81
2022/03/08 12:47:59;;;;;;;24.88;23.38;;;;;;;;;;4995056;28;20513;-81
2022/03/08 12:50:28;;;;;;;25.30;23.73;;;;;;;;;;4995314;28;20195;-82
2022/03/08 12:52:57;;;;;;;26.33;24.83;;;;;;;;;;4994842;28;20438;-81
2022/03/08 12:55:28;;;;;;;24.37;22.93;;;;;;;;;;4995324;28;20450;-81
2022/03/08 12:57:56;;;;;;;25.73;24.03;;;;;;;;;;4994759;28;20507;-81
2022/03/08 13:00:42;;;;;;;24.40;23.00;;;;;;;;;;4994841;28;20460;-81
2022/03/08 13:03:11;;;;;;;24.63;23.13;;;;;;;;;;4994796;28;20442;-81
2022/03/08 13:05:40;;;;;;;24.67;23.17;;;;;;;;;;4994905;28;20490;-81
2022/03/08 13:08:07;;;;;;;24.50;23.00;;;;;;;;;;4994619;28;20448;-81
2022/03/08 13:10:35;;;;;;;25.13;23.63;;;;;;;;;;4995108;28;20417;-81
2022/03/08 13:13:03;;;;;;;25.03;23.57;;;;;;;;;;4995084;28;20453;-82
2022/03/08 13:15:31;;;;;;;24.90;23.47;;;;;;;;;;4994854;28;20442;-81
2022/03/08 13:17:59;;;;;;;24.70;23.20;;;;;;;;;;4993974;28;21102;-81
2022/03/08 13:20:29;;;;;;;25.17;23.47;;;;;;;;;;4994334;28;20413;-81
2022/03/08 13:22:57;;;;;;;23.77;22.23;;;;;;;;;;4994528;28;20438;-81
2022/03/08 13:25:24;;;;;;;24.90;23.37;;;;;;;;;;4994536;28;20481;-82
2022/03/08 13:27:56;;;;;;;24.50;23.10;;;;;;;;;;4994600;28;20424;-81
2022/03/08 13:30:25;;;;;;;24.17;22.77;;;;;;;;;;4994388;28;20770;-81
2022/03/08 13:33:11;;;;;;;25.93;24.47;;;;;;;;;;4994040;28;20420;-82
2022/03/08 13:35:41;;;;;;;25.33;23.63;;;;;;;;;;4994285;28;20424;-81
2022/03/08 13:38:11;;;;;;;24.83;23.43;;;;;;;;;;4994082;28;20434;-81
2022/03/08 13:40:39;;;;;;;24.80;23.10;;;;;;;;;;4993833;28;21236;-81
2022/03/08 13:43:08;;;;;;;24.60;23.13;;;;;;;;;;4994098;28;20456;-81
2022/03/08 13:45:36;;;;;;;23.83;22.53;;;;;;;;;;4993925;28;20460;-81
2022/03/08 13:48:05;;;;;;;25.03;23.63;;;;;;;;;;4994008;28;20454;-82
2022/03/08 13:50:32;;;;;;;24.43;23.03;;;;;;;;;;4993684;28;20421;-81
2022/03/08 13:53:09;;;;;;;24.90;23.40;;;;;;;;;;4993971;28;20417;-82
2022/03/08 13:55:37;;;;;;;24.00;22.60;;;;;;;;;;4993621;28;20891;-81
2022/03/08 13:58:05;;;;;;;25.60;24.10;;;;;;;;;;4993445;28;20420;-80
2022/03/08 14:00:34;;;;;;;25.37;23.77;;;;;;;;;;4993772;28;20438;-82
2022/03/08 14:03:01;;;;;;;24.70;23.30;;;;;;;;;;4993386;28;20428;-82
2022/03/08 14:05:29;;;;;;;24.97;23.57;;;;;;;;;;4993427;28;20536;-81
2022/03/08 14:08:02;;;;;;;25.53;24.13;;;;;;;;;;4993487;28;20508;-82
2022/03/08 14:10:31;;;;;;;25.17;23.80;;;;;;;;;;4993411;28;20409;-81
2022/03/08 14:12:59;;;;;;;25.03;23.53;;;;;;;;;;4993387;28;20409;-83
2022/03/08 14:15:29;;;;;;;24.90;23.60;;;;;;;;;;4993326;28;20429;-82
2022/03/08 14:18:06;;;;;;;24.80;23.40;;;;;;;;;;4993413;28;20548;-82
2022/03/08 14:20:37;;;;;;;24.27;22.90;;;;;;;;;;4993345;28;20449;-81
2022/03/08 14:23:08;;;;;;;24.70;23.27;;;;;;;;;;4993287;28;21008;-82